Tiempo atmosférico en la estación meteorológica de Almendralejo, Badajoz (371 m.)



Fecha
DESCASC
Temp. máxima en grados centígrados (hora)
DESCASC
Temp. mínima en grados centígrados (hora)
DESCASC
Temp. media en grados centígrados
DESCASC
Racha de viento máxima en m/sg (hora)
DESCASC
Velocidad máxima media en intervalos de 10 minutos(hora)
DESCASC
Precipitaciones diarias en mm
DESCASC
Precipitaciones de 00:00 a 06:00 en mm
DESCASC
Precipitaciones de 06:00 a 12:00 en mm
DESCASC
Precipitaciones de 12:00 a 18:00 en mm
DESCASC
Precipitaciones de 18:00 a 24:00 en mm
DESCASC
16-01-2020 17.3 (15:30) 6.5 (07:40) 11.9 11.39 (14:50) 7.78 (23:00) 0 0 0 0 0
15-01-2020 16.4 (13:50) 7.1 (00:00) 11.7 12.78 (13:30) 8.89 (01:30) 0 0 0 0 0
14-01-2020 13.3 (13:50) -0.4 (07:20) 6.5 7.5 (23:10) 5.83 (23:10) 0 0 0 0 0
13-01-2020 12.8 (13:10) -0.1 (06:30) 6.4 6.11 (15:00) 4.44 (09:30) 0 0 0 0 0
12-01-2020 13 (16:40) 1.1 (00:00) 7.1 5 (14:20) 3.89 (09:00) 0 0 0 0 0
11-01-2020 12.5 (16:00) 1.9 (00:00) 7.2 5.28 (12:30) 3.33 (12:30) 0 0 0 0 0
10-01-2020 11.9 (15:30) 2.8 (00:00) 7.3 6.94 (15:30) 5 (15:50) 0 0 0 0 0
09-01-2020 13.3 (15:50) 1.7 (00:00) 7.5 5.28 (23:30) 3.61 (03:10) 0 0 0 0 0
08-01-2020 15.6 (15:50) 2.6 (00:00) 9.1 3.89 (15:30) 3.06 (08:40) 0 0 0 0 0
07-01-2020 14.9 (16:50) 0.4 (00:00) 7.6 3.33 (15:10) 2.78 (01:30) 0 0 0 0 0
06-01-2020 13.5 (15:50) 0.8 (00:00) 7.2 3.89 (17:30) 2.78 (17:30) 0 0 0 0 0
05-01-2020 12.7 (15:50) 1.2 (00:00) 6.9 4.17 (14:10) 2.78 (03:00) 0 0 0 0 0
04-01-2020 12 (16:00) 1.7 (00:00) 6.9 6.11 (15:40) 4.17 (16:10) 0 0 0 0 0
03-01-2020 13.1 (15:40) 7.3 (00:00) 10.2 7.22 (15:40) 4.44 (14:20) 0 0 0 0 0
02-01-2020 13.6 (14:20) 2.5 (00:00) 8.1 6.11 (15:10) 4.17 (15:00) 0 0 0 0 0
01-01-2020 14.5 (16:30) 2.4 (00:00) 8.5 4.17 (07:40) 3.89 (08:10) 0 0 0 0 0
31-12-2019 13.7 (15:40) 2.3 (00:00) 8 4.44 (17:00) 3.06 (06:30) 0 0 0 0 0
30-12-2019 15.3 (15:40) 3.5 (00:00) 9.4 4.72 (09:50) 3.61 (04:00) 0 0 0 0 0
29-12-2019 16.5 (15:30) 5.7 (00:00) 11.1 5 (13:10) 3.89 (09:50) 0 0 0 0 0
28-12-2019 17 (15:50) 5.1 (00:00) 11 5.28 (19:00) 3.89 (23:10) 0 0 0 0 0
27-12-2019 17.5 (15:50) 5.8 (00:00) 11.7 5.83 (16:40) 4.17 (15:40) 0 0 0 0 0
26-12-2019 13.6 (17:10) 8.3 (00:00) 11 4.17 (00:40) 3.06 (00:40) 0 0 0 0 0
25-12-2019 18.3 (13:40) 8.3 (00:00) 13.3 5.83 (02:30) 5 (02:30) 0 0 0 0 0
24-12-2019 18.3 (16:00) 6.2 (00:00) 12.2 5.56 (23:30) 5 (23:30) 0 0 0 0 0
23-12-2019 14.5 (15:50) 7.2 (00:00) 10.8 6.11 (03:50) 3.33 (03:50) 0 0 0 0 0
22-12-2019 16.2 (14:50) 11.2 (00:00) 13.7 14.72 (00:30) 10.56 (00:10) 0 0 0 0 0
21-12-2019 18.4 (14:40) 12.7 (00:00) 15.5 21.11 (13:40) 13.89 (13:40) 6.6 3.8 0.2 2.6 0
20-12-2019 17 (16:10) 13.9 (00:00) 15.4 22.22 (00:20) 15 (00:20) 15 5 7.6 0 2.4
19-12-2019 16.4 (20:20) 11.6 (05:40) 14 23.61 (20:40) 15.28 (21:40) 10.2 7.4 0.2 1.4 1.2

Gráficas

Temp. máximas Temp. mínimas Temp. medias Precipitaciones Rachas de viento máximas Velocidades máximas media en intervalos de 10 minutos

Datos horarios

Fecha y hora oficial Temperatura (ºC) Velocidad del viento (km/h) Dirección del viento Racha (km/h) Dirección de racha Precipitación (mm) Presión (hPa) Tendencia (hPa) Humedad (%)
2020-01-17 23:00:00 9.6 9 Sudoeste 13 Sudoeste 0 -- -- 89
2020-01-17 22:00:00 9.7 10 Sudoeste 13 Sur 0 -- -- 89
2020-01-17 21:00:00 10 7 Sudoeste 10 Sudoeste 0 -- -- 88
2020-01-17 20:00:00 10.7 4 Nordeste 6 Nordeste 0 -- -- 84
2020-01-17 19:00:00 11.5 4 Nordeste 5 Nordeste 0 -- -- 81
2020-01-17 18:00:00 12.8 4 Nordeste 12 Norte 0 -- -- 76
2020-01-17 17:00:00 13.9 9 Nordeste 16 Norte 0 -- -- 71
2020-01-17 16:00:00 14.3 9 Norte 15 Noroeste 0 -- -- 73
2020-01-17 15:00:00 14.1 8 Noroeste 18 Norte 0 -- -- 78
2020-01-17 14:00:00 13.5 13 Noroeste 26 Norte 0 -- -- 80
2020-01-17 13:00:00 13.4 8 Noroeste 14 Noroeste 0 -- -- 81
2020-01-17 12:00:00 12.3 10 Oeste 19 Oeste 0 -- -- 86
2020-01-17 11:00:00 11.4 14 Oeste 18 Oeste 0 -- -- 90
2020-01-17 10:00:00 10.1 8 Oeste 14 Noroeste 0 -- -- 98
2020-01-17 09:00:00 9.6 6 Noroeste 10 Noroeste 0 -- -- 98
2020-01-17 08:00:00 9.5 6 Oeste 12 Noroeste 0 -- -- 98
2020-01-17 07:00:00 9.7 7 Noroeste 13 Noroeste 0 -- -- 98
2020-01-17 06:00:00 10.1 5 Oeste 6 Oeste 0 -- -- 96
2020-01-17 05:00:00 10.7 3 Noroeste 5 Oeste 0 -- -- 96
2020-01-17 04:00:00 10.7 4 Oeste 13 Sudoeste 0 -- -- 97
2020-01-17 03:00:00 10.6 6 Sudoeste 11 Sudoeste 0 -- -- 97
2020-01-17 02:00:00 10.7 7 Sudoeste 13 Oeste 0.4 -- -- 97
2020-01-17 01:00:00 10.7 11 Oeste 31 Oeste 2 -- -- 95
2020-01-17 00:00:00 11.6 15 Oeste 35 Oeste 0 -- -- 83
2020-01-16 23:00:00 12.5 28 Oeste 36 Oeste 0 -- -- 70
2020-01-16 22:00:00 11.8 17 Sudoeste 31 Sudoeste 0 -- -- 58
2020-01-16 21:00:00 12.4 25 Sudoeste 36 Sudoeste 0 -- -- 53
2020-01-16 20:00:00 12 18 Sudoeste 26 Sudoeste 0 -- -- 52
2020-01-16 19:00:00 12.8 17 Sudoeste 31 Oeste 0 -- -- 48
2020-01-16 18:00:00 14.8 24 Oeste 34 Sudoeste 0 -- -- 42
2020-01-16 17:00:00 16.4 24 Oeste 34 Oeste 0 -- -- 40
2020-01-16 16:00:00 17.2 26 Oeste 36 Oeste 0 -- -- 38
2020-01-16 15:00:00 16.9 27 Oeste 41 Oeste 0 -- -- 44
2020-01-16 14:00:00 16.9 27 Oeste 39 Oeste 0 -- -- 45
2020-01-16 13:00:00 15.6 24 Sudoeste 33 Sudoeste 0 -- -- 56
2020-01-16 12:00:00 13.7 20 Sudoeste 30 Sudoeste 0 -- -- 73
2020-01-16 11:00:00 10 17 Sur 26 Sur 0 -- -- 91
2020-01-16 10:00:00 7.6 17 Sur 23 Sur 0 -- -- 95
2020-01-16 09:00:00 7 17 Sur 23 Sur 0 -- -- 98
2020-01-16 08:00:00 6.7 10 Sudeste 16 Sur 0 -- -- 97
2020-01-16 07:00:00 7.6 9 Sur 17 Sur 0 -- -- 95
2020-01-16 06:00:00 8 14 Sur 19 Sur 0 -- -- 94
2020-01-16 05:00:00 9.2 15 Sur 21 Sur 0 -- -- 92
2020-01-16 04:00:00 9.5 14 Sur 18 Sur 0 -- -- 91
2020-01-16 03:00:00 11.2 12 Sur 18 Sur 0 -- -- 89
2020-01-16 02:00:00 11.2 11 Sur 17 Sur 0 -- -- 89
2020-01-16 01:00:00 11 9 Sur 17 Sur 0 -- -- 89
2020-01-16 00:00:00 11.6 10 Sur 19 Sudoeste 0 -- -- 87
2020-01-15 23:00:00 11.9 14 Sudoeste 22 Sur 0 -- -- 87
2020-01-15 22:00:00 11.7 13 Sur 21 Sur 0 -- -- 87
2020-01-15 21:00:00 11.8 17 Sudoeste 27 Sudoeste 0 -- -- 87
2020-01-15 20:00:00 11.6 16 Sudoeste 27 Sudoeste 0 -- -- 86
2020-01-15 19:00:00 11.8 13 Sudoeste 29 Sudoeste 0 -- -- 86
2020-01-15 18:00:00 13.7 21 Sudoeste 37 Sudoeste 0 -- -- 77
2020-01-15 17:00:00 15.3 25 Sudoeste 35 Sudoeste 0 -- -- 73
2020-01-15 16:00:00 15.6 21 Sudoeste 32 Oeste 0 -- -- 71
2020-01-15 15:00:00 15.6 25 Oeste 44 Oeste 0 -- -- 69
2020-01-15 14:00:00 16.3 29 Oeste 46 Sudoeste 0 -- -- 65
2020-01-15 13:00:00 15.9 30 Sudoeste 42 Sudoeste 0 -- -- 68
2020-01-15 12:00:00 14 27 Sudoeste 37 Sudoeste 0 -- -- 75
2020-01-15 11:00:00 11.1 25 Sudoeste 37 Sudoeste 0 -- -- 83
2020-01-15 10:00:00 9.9 19 Sudoeste 33 Sudoeste 0 -- -- 84
2020-01-15 09:00:00 8.4 19 Sur 28 Sur 0 -- -- 84
2020-01-15 08:00:00 8.1 20 Sur 40 Sur 0 -- -- 84
2020-01-15 07:00:00 8.9 23 Sur 33 Sur 0 -- -- 82
2020-01-15 06:00:00 8.6 22 Sudoeste 32 Sudoeste 0 -- -- 85
2020-01-15 05:00:00 8.1 18 Sudoeste 32 Sudoeste 0 -- -- 84
2020-01-15 04:00:00 8.1 24 Sudoeste 36 Sudoeste 0 -- -- 83
2020-01-15 03:00:00 8 28 Sudoeste 39 Sudoeste 0 -- -- 84
2020-01-15 02:00:00 8.3 30 Sudoeste 40 Sudoeste 0 -- -- 83
2020-01-15 01:00:00 8.4 28 Sudoeste 35 Sudoeste 0 -- -- 82
2020-01-15 00:00:00 7.1 14 Sur 27 Sudoeste 0 -- -- 88
2020-01-14 23:00:00 7.4 16 Sudoeste 23 Sudoeste 0 -- -- 87
2020-01-14 22:00:00 7.7 12 Sur 21 Sur 0 -- -- 81
2020-01-14 21:00:00 8.9 15 Sur 23 Sur 0 -- -- 78
2020-01-14 20:00:00 10 14 Sur 22 Sur 0 -- -- 74
2020-01-14 19:00:00 11.2 13 Sudoeste 23 Sudoeste 0 -- -- 71
2020-01-14 18:00:00 11.8 17 Sudoeste 23 Sudoeste 0 -- -- 69
2020-01-14 17:00:00 11.7 12 Sudoeste 17 Sudoeste 0 -- -- 70
2020-01-14 16:00:00 11.3 9 Oeste 19 Oeste 0 -- -- 74
2020-01-14 15:00:00 11.7 15 Oeste 24 Oeste 0 -- -- 69
2020-01-14 14:00:00 13.1 12 Sudoeste 22 Sudoeste 0 -- -- 58
2020-01-14 13:00:00 12.5 13 Sudoeste 23 Sur 0 -- -- 60
2020-01-14 12:00:00 11.2 15 Sur 20 Sur 0 -- -- 65
2020-01-14 11:00:00 7.8 10 Sur 20 Sur 0 -- -- 79
2020-01-14 10:00:00 4.4 13 Sur 22 Sur 0 -- -- 87
2020-01-14 09:00:00 0.9 15 Sur 18 Sur 0 -- -- 93
2020-01-14 08:00:00 1.6 10 Sudoeste 13 Sudoeste 0 -- -- 93
2020-01-14 07:00:00 -0.1 11 Sur 13 Sur 0 -- -- 91
2020-01-14 06:00:00 0.3 11 Sur 13 Sur 0 -- -- 89
2020-01-14 05:00:00 0.8 7 Sur 15 Sudoeste 0 -- -- 87
2020-01-14 04:00:00 2.1 12 Sudoeste 13 Sudoeste 0 -- -- 88
2020-01-14 03:00:00 3.4 6 Sudoeste 10 Oeste 0 -- -- 79
2020-01-14 02:00:00 2.8 8 Sudoeste 13 Sudoeste 0 -- -- 85
2020-01-14 01:00:00 3.5 7 Sudoeste 11 Sudoeste 0 -- -- 87
2020-01-14 00:00:00 3.2 8 Sur 10 Sur 0 -- -- 77
2020-01-13 23:00:00 5.8 3 Este 4 Este 0 -- -- 82
2020-01-13 22:00:00 5.6 2 Sudoeste 5 Sur 0 -- -- 79
2020-01-13 21:00:00 6.8 4 Sur 6 Sudeste 0 -- -- 74
2020-01-13 20:00:00 7.9 3 Sudeste 6 Sudeste 0 -- -- 73
2020-01-13 19:00:00 9.5 4 Norte 6 Noroeste 0 -- -- 66
2020-01-13 18:00:00 11.2 4 Noroeste 11 Noroeste 0 -- -- 61
2020-01-13 17:00:00 11.9 6 Noroeste 17 Oeste 0 -- -- 59
2020-01-13 16:00:00 12.4 8 Norte 18 Noroeste 0 -- -- 57
2020-01-13 15:00:00 12.1 13 Norte 22 Norte 0 -- -- 56
2020-01-13 14:00:00 12 9 Nordeste 21 Oeste 0 -- -- 63
2020-01-13 13:00:00 12.4 7 Oeste 14 Sudoeste 0 -- -- 58
2020-01-13 12:00:00 9.7 6 Sur 14 Sur 0 -- -- 68
2020-01-13 11:00:00 6.3 10 Sur 19 Sur 0 -- -- 80
2020-01-13 10:00:00 2.4 14 Sur 19 Sur 0 -- -- 87
2020-01-13 09:00:00 0.3 14 Sur 17 Sur 0 -- -- 92
2020-01-13 08:00:00 0.2 14 Sur 15 Sur 0 -- -- 90
2020-01-13 07:00:00 0.6 14 Sur 15 Sur 0 -- -- 91
2020-01-13 06:00:00 0.8 9 Sur 12 Sur 0 -- -- 91
2020-01-13 05:00:00 0.2 10 Sur 12 Sur 0 -- -- 89
2020-01-13 04:00:00 0 10 Sur 15 Sudoeste 0 -- -- 86
2020-01-13 03:00:00 0.8 9 Sur 16 Sur 0 -- -- 84
2020-01-13 02:00:00 2.5 13 Sudoeste 15 Sudoeste 0 -- -- 80
2020-01-13 01:00:00 3.3 10 Sur 12 Sur 0 -- -- 77
2020-01-13 00:00:00 3.4 10 Sudoeste 12 Sudoeste 0 -- -- 74
2020-01-12 23:00:00 5.5 4 Sudoeste 6 Sudoeste 0 -- -- 71
2020-01-12 22:00:00 7.2 0 Calma 4 Nordeste 0 -- -- 68
2020-01-12 21:00:00 7.8 3 Norte -- -- 0 -- -- 64
2020-01-12 20:00:00 8.1 4 Nordeste 4 Nordeste 0 -- -- 66
2020-01-12 19:00:00 9.5 4 Nordeste 4 Nordeste 0 -- -- 62
2020-01-12 18:00:00 11.7 2 Este 12 Nordeste 0 -- -- 53
2020-01-12 17:00:00 12.7 8 Nordeste 15 Nordeste 0 -- -- 51
2020-01-12 16:00:00 12.9 8 Nordeste 15 Nordeste 0 -- -- 51
2020-01-12 15:00:00 12.8 8 Nordeste 18 Nordeste 0 -- -- 52
2020-01-12 14:00:00 12.1 9 Nordeste 15 Nordeste 0 -- -- 59
2020-01-12 13:00:00 11.7 5 Este 10 Sudeste 0 -- -- 61
2020-01-12 12:00:00 10 6 Sudeste 10 Sudeste 0 -- -- 66
2020-01-12 11:00:00 6.9 5 Sur 9 Sur 0 -- -- 72
2020-01-12 10:00:00 3.6 7 Sur 15 Sur 0 -- -- 80
2020-01-12 09:00:00 2.1 14 Sudoeste 15 Sur 0 -- -- 86
2020-01-12 08:00:00 2 12 Sudoeste 15 Sudoeste 0 -- -- 87
2020-01-12 07:00:00 1.9 13 Sudoeste 14 Sudoeste 0 -- -- 86
2020-01-12 06:00:00 2.4 8 Sudoeste 11 Sudoeste 0 -- -- 86
2020-01-12 05:00:00 3.2 7 Sudoeste 11 Sudoeste 0 -- -- 81
2020-01-12 04:00:00 2.9 10 Sudoeste 12 Sudoeste 0 -- -- 85
2020-01-12 03:00:00 1.1 10 Sur 14 Sur 0 -- -- 86
2020-01-12 02:00:00 4.4 4 Sur 8 Sur 0 -- -- 79
2020-01-12 01:00:00 3.2 8 Sudoeste 10 Sudoeste 0 -- -- 85
2020-01-12 00:00:00 4.5 7 Sur 8 Sur 0 -- -- 78
2020-01-11 23:00:00 4.8 5 Sur 6 Sur 0 -- -- 78
2020-01-11 22:00:00 6.5 4 Sudeste 7 Este 0 -- -- 72
2020-01-11 21:00:00 7.7 7 Este 10 Este 0 -- -- 70
2020-01-11 20:00:00 7.5 9 Nordeste 10 Este 0 -- -- 71
2020-01-11 19:00:00 8.4 9 Nordeste 13 Nordeste 0 -- -- 67
2020-01-11 18:00:00 11 7 Nordeste 15 Nordeste 0 -- -- 59
2020-01-11 17:00:00 12.4 8 Este 14 Este 0 -- -- 54
2020-01-11 16:00:00 12.5 8 Este 14 Este 0 -- -- 54
2020-01-11 15:00:00 11.9 8 Este 17 Este 0 -- -- 57
2020-01-11 14:00:00 11.2 10 Este 16 Este 0 -- -- 58
2020-01-11 13:00:00 10.2 10 Este 19 Este 0 -- -- 61
2020-01-11 12:00:00 9 8 Sudeste 16 Este 0 -- -- 64
2020-01-11 11:00:00 7.1 7 Este 11 Este 0 -- -- 70
2020-01-11 10:00:00 4 8 Sur 10 Sur 0 -- -- 82
2020-01-11 09:00:00 2.1 6 Este 9 Nordeste 0 -- -- 90
2020-01-11 08:00:00 3.5 6 Nordeste 9 Nordeste 0 -- -- 82
2020-01-11 07:00:00 2.7 3 Sudeste 5 Sur 0 -- -- 86
2020-01-11 06:00:00 2.6 3 Sur 15 Sur 0 -- -- 87
2020-01-11 05:00:00 3.8 10 Este 12 Este 0 -- -- 86
2020-01-11 04:00:00 3.9 5 Este 8 Este 0 -- -- 87
2020-01-11 03:00:00 4.5 7 Este 9 Este 0 -- -- 84
2020-01-11 02:00:00 5.3 7 Este 10 Este 0 -- -- 78
2020-01-11 01:00:00 5.3 8 Este 9 Este 0 -- -- 83
2020-01-11 00:00:00 5.5 4 Este 6 Este 0 -- -- 86
2020-01-10 23:00:00 5.6 3 Sur 13 Este 0 -- -- 82
2020-01-10 22:00:00 6.5 10 Este 14 Este 0 -- -- 78
2020-01-10 21:00:00 6.8 10 Nordeste 13 Nordeste 0 -- -- 77
2020-01-10 20:00:00 7.8 10 Nordeste 12 Nordeste 0 -- -- 81
2020-01-10 19:00:00 8.9 8 Nordeste 9 Nordeste 0 -- -- 79
2020-01-10 18:00:00 10.7 7 Este 20 Este 0 -- -- 71
2020-01-10 17:00:00 11.4 13 Este 23 Nordeste 0 -- -- 64
2020-01-10 16:00:00 11.6 16 Nordeste 25 Nordeste 0 -- -- 63
2020-01-10 15:00:00 10.9 9 Este 16 Este 0 -- -- 65
2020-01-10 14:00:00 9.9 6 Sudeste 18 Este 0 -- -- 68
2020-01-10 13:00:00 8.3 10 Este 21 Nordeste 0 -- -- 79
2020-01-10 12:00:00 7.3 15 Nordeste 25 Nordeste 0 -- -- 84
2020-01-10 11:00:00 6.2 7 Noroeste 15 Noroeste 0 -- -- 85
2020-01-10 10:00:00 4.4 12 Noroeste 20 Noroeste 0 -- -- 89
2020-01-10 09:00:00 2.9 12 Noroeste 20 Noroeste 0 -- -- 94
2020-01-10 08:00:00 3.2 11 Noroeste 16 Noroeste 0 -- -- 96
2020-01-10 07:00:00 3.7 10 Noroeste 15 Noroeste 0 -- -- 97
2020-01-10 06:00:00 4.4 10 Noroeste 17 Noroeste 0 -- -- 97
2020-01-10 05:00:00 5.3 12 Noroeste 17 Noroeste 0 -- -- 97
2020-01-10 04:00:00 6 10 Noroeste 17 Noroeste 0 -- -- 97
2020-01-10 03:00:00 6.6 11 Noroeste 20 Noroeste 0 -- -- 98
2020-01-10 02:00:00 7.8 12 Noroeste 20 Noroeste 0 -- -- 97
2020-01-10 01:00:00 8.7 12 Noroeste 18 Noroeste 0 -- -- 97
2020-01-10 00:00:00 9.5 11 Noroeste 19 Noroeste 0 -- -- 94
2020-01-09 23:00:00 10.5 9 Noroeste 17 Noroeste 0 -- -- 91
2020-01-09 22:00:00 9.6 10 Noroeste 16 Noroeste 0 -- -- 89
2020-01-09 21:00:00 9.4 10 Oeste 13 Noroeste 0 -- -- 79
2020-01-09 20:00:00 9.9 7 Noroeste 12 Noroeste 0 -- -- 78
2020-01-09 19:00:00 9.9 10 Noroeste 14 Noroeste 0 -- -- 75
2020-01-09 18:00:00 12 10 Noroeste 14 Noroeste 0 -- -- 70
2020-01-09 17:00:00 12.7 11 Noroeste 17 Noroeste 0 -- -- 67
2020-01-09 16:00:00 13.2 9 Noroeste 17 Noroeste 0 -- -- 67
2020-01-09 15:00:00 12.6 3 Noroeste 11 Norte 0 -- -- 69
2020-01-09 14:00:00 11.1 6 Noroeste 14 Norte 0 -- -- 76
2020-01-09 13:00:00 10.3 4 Norte 9 Norte 0 -- -- 79
2020-01-09 12:00:00 9 3 Oeste 8 Oeste 0 -- -- 84
2020-01-09 11:00:00 7.2 4 Sudoeste 7 Oeste 0 -- -- 90
2020-01-09 10:00:00 4.3 4 Noroeste 8 Oeste 0 -- -- 93
2020-01-09 09:00:00 2.9 3 Sudoeste 8 Sur 0 -- -- 96
2020-01-09 08:00:00 1.8 6 Sur 8 Sur 0 -- -- 94
2020-01-09 07:00:00 3.1 4 Sudeste 6 Sudeste 0 -- -- 87
2020-01-09 06:00:00 5.1 5 Noroeste -- -- 0 -- -- 88
2020-01-09 05:00:00 3.7 8 Sudoeste 11 Sudoeste 0 -- -- 91
2020-01-09 04:00:00 3.7 11 Sudoeste 15 Sudoeste 0 -- -- 87
2020-01-09 03:00:00 4.1 12 Sudoeste 14 Sudoeste 0 -- -- 88
2020-01-09 02:00:00 3.5 11 Sudoeste 13 Sudoeste 0 -- -- 91
2020-01-09 01:00:00 4.9 3 Sudoeste 5 Noroeste 0 -- -- 87
2020-01-09 00:00:00 6.9 5 Noroeste 8 Noroeste 0 -- -- 88
2020-01-08 23:00:00 6.8 4 Noroeste 7 Noroeste 0 -- -- 86
2020-01-08 22:00:00 7.7 5 Noroeste 8 Noroeste 0 -- -- 82
2020-01-08 21:00:00 8.1 5 Noroeste 8 Noroeste 0 -- -- 80
2020-01-08 20:00:00 8.9 4 Oeste 5 Oeste 0 -- -- 77
2020-01-08 19:00:00 10.4 3 Norte 10 Norte 0 -- -- 72
2020-01-08 18:00:00 12.5 8 Norte 12 Nordeste 0 -- -- 67
2020-01-08 17:00:00 14.7 7 Noroeste 12 Norte 0 -- -- 52
2020-01-08 16:00:00 15.3 6 Noroeste 14 Noroeste 0 -- -- 46
2020-01-08 15:00:00 14.9 4 Noroeste 10 Noroeste 0 -- -- 56
2020-01-08 14:00:00 13.3 3 Norte 6 Noroeste 0 -- -- 65
2020-01-08 13:00:00 10.6 3 Sudeste 6 Este 0 -- -- 78
2020-01-08 12:00:00 7.5 3 Sudeste 8 Sudeste 0 -- -- 86
2020-01-08 11:00:00 4.6 5 Este 9 Sudeste 0 -- -- 89
2020-01-08 10:00:00 4.2 4 Sudeste 9 Sudoeste 0 -- -- 86
2020-01-08 09:00:00 3.8 10 Sudoeste 12 Sudoeste 0 -- -- 96
2020-01-08 08:00:00 3.6 10 Sudoeste 12 Sudoeste 0 -- -- 94
2020-01-08 07:00:00 3.8 9 Sudoeste 10 Sudoeste 0 -- -- 91
2020-01-08 06:00:00 4.3 10 Sudoeste 12 Sudoeste 0 -- -- 90
2020-01-08 05:00:00 3.7 10 Sudoeste 12 Sur 0 -- -- 91
2020-01-08 04:00:00 2.8 6 Sur 7 Sur 0 -- -- 89
2020-01-08 03:00:00 3.9 5 Sur 6 Sur 0 -- -- 85
2020-01-08 02:00:00 7.7 0 Calma 6 Oeste 0 -- -- 80
2020-01-08 01:00:00 7.5 7 Oeste 8 Oeste 0 -- -- 80
2020-01-08 00:00:00 8.1 4 Oeste 5 Oeste 0 -- -- 79
2020-01-07 23:00:00 8.2 2 Oeste 4 Nordeste 0 -- -- 78
2020-01-07 22:00:00 8.9 5 Este 7 Este 0 -- -- 73
2020-01-07 21:00:00 9.6 4 Norte 6 Norte 0 -- -- 72
2020-01-07 20:00:00 10.4 4 Norte 7 Norte 0 -- -- 68
2020-01-07 19:00:00 11.2 6 Nordeste 10 Nordeste 0 -- -- 69
2020-01-07 18:00:00 13.2 9 Nordeste 12 Nordeste 0 -- -- 62
2020-01-07 17:00:00 14.7 3 Este 6 Este 0 -- -- 52
2020-01-07 16:00:00 14.7 3 Este 12 Nordeste 0 -- -- 52
2020-01-07 15:00:00 14.1 6 Nordeste 11 Nordeste 0 -- -- 61
2020-01-07 14:00:00 12.9 4 Nordeste 8 Nordeste 0 -- -- 65
2020-01-07 13:00:00 10.8 5 Este 10 Este 0 -- -- 73
2020-01-07 12:00:00 9.1 4 Este 8 Este 0 -- -- 79
2020-01-07 11:00:00 7.3 3 Sur 9 Sur 0 -- -- 83
2020-01-07 10:00:00 3 7 Sur 10 Sur 0 -- -- 95
2020-01-07 09:00:00 0.8 10 Sur 11 Sur 0 -- -- 98
2020-01-07 08:00:00 0.6 8 Sur 9 Sur 0 -- -- 96
2020-01-07 07:00:00 2 3 Sudeste 4 Sudeste 0 -- -- 94
2020-01-07 06:00:00 2.2 4 Sur 7 Sur 0 -- -- 95
2020-01-07 05:00:00 3 5 Sudeste 8 Sur 0 -- -- 95
2020-01-07 04:00:00 3.7 6 Sur 8 Sur 0 -- -- 94
2020-01-07 03:00:00 4.7 6 Sur 12 Sudoeste 0 -- -- 92
2020-01-07 02:00:00 5.1 9 Sur 11 Sur 0 -- -- 92
2020-01-07 01:00:00 5.5 5 Sur 9 Sur 0 -- -- 92
2020-01-07 00:00:00 5.4 5 Sur 10 Sudoeste 0 -- -- 90
2020-01-06 23:00:00 6.5 2 Sur 6 Norte 0 -- -- 84
2020-01-06 22:00:00 7.9 6 Norte 11 Norte 0 -- -- 83
2020-01-06 21:00:00 8.3 5 Norte 10 Norte 0 -- -- 78
2020-01-06 20:00:00 9.2 5 Norte 10 Nordeste 0 -- -- 75
2020-01-06 19:00:00 9.8 7 Nordeste 10 Nordeste 0 -- -- 73
2020-01-06 18:00:00 11.8 6 Nordeste 14 Nordeste 0 -- -- 65
2020-01-06 17:00:00 13.1 8 Nordeste 12 Nordeste 0 -- -- 61
2020-01-06 16:00:00 13.4 5 Este 12 Este 0 -- -- 60
2020-01-06 15:00:00 13.2 4 Nordeste 10 Este 0 -- -- 61
2020-01-06 14:00:00 12.5 4 Este 7 Sudeste 0 -- -- 66
2020-01-06 13:00:00 11.4 3 Este 8 Sudeste 0 -- -- 71
2020-01-06 12:00:00 9.3 5 Sudeste 9 Sudeste 0 -- -- 79
2020-01-06 11:00:00 6.5 0 Calma 8 Sur 0 -- -- 91
2020-01-06 10:00:00 3.7 3 Sudeste 5 Sudeste 0 -- -- 96